sensor_id;sensor_type;location;lat;lon;timestamp;P1;durP1;ratioP1;P2;durP2;ratioP2
64641;SDS011;59936;51.490;5.436;2022-10-16T00:01:49;5.95;;;3.70;;
64641;SDS011;59936;51.490;5.436;2022-10-16T00:06:50;7.70;;;3.92;;
64641;SDS011;59936;51.490;5.436;2022-10-16T00:11:53;5.97;;;3.45;;
64641;SDS011;59936;51.490;5.436;2022-10-16T00:16:55;7.25;;;3.65;;
64641;SDS011;59936;51.490;5.436;2022-10-16T00:21:56;8.18;;;3.17;;
64641;SDS011;59936;51.490;5.436;2022-10-16T00:26:59;4.43;;;3.22;;
64641;SDS011;59936;51.490;5.436;2022-10-16T00:32:01;6.13;;;3.13;;
64641;SDS011;59936;51.490;5.436;2022-10-16T00:37:03;6.55;;;3.20;;
64641;SDS011;59936;51.490;5.436;2022-10-16T00:42:09;4.45;;;3.30;;
64641;SDS011;59936;51.490;5.436;2022-10-16T00:47:19;4.97;;;3.20;;
64641;SDS011;59936;51.490;5.436;2022-10-16T00:52:27;6.03;;;3.53;;
64641;SDS011;59936;51.490;5.436;2022-10-16T00:57:30;3.78;;;3.45;;
64641;SDS011;59936;51.490;5.436;2022-10-16T01:02:32;6.85;;;3.20;;
64641;SDS011;59936;51.490;5.436;2022-10-16T01:07:36;4.53;;;3.20;;
64641;SDS011;59936;51.490;5.436;2022-10-16T01:12:53;4.70;;;3.58;;
64641;SDS011;59936;51.490;5.436;2022-10-16T01:18:03;4.13;;;3.35;;
64641;SDS011;59936;51.490;5.436;2022-10-16T01:23:15;4.97;;;3.17;;
64641;SDS011;59936;51.490;5.436;2022-10-16T01:28:39;7.18;;;3.85;;
64641;SDS011;59936;51.490;5.436;2022-10-16T01:33:51;5.80;;;3.47;;
64641;SDS011;59936;51.490;5.436;2022-10-16T01:39:01;5.10;;;3.33;;
64641;SDS011;59936;51.490;5.436;2022-10-16T01:44:06;4.97;;;3.05;;
64641;SDS011;59936;51.490;5.436;2022-10-16T01:49:13;3.17;;;2.65;;
64641;SDS011;59936;51.490;5.436;2022-10-16T01:54:18;4.85;;;2.90;;
64641;SDS011;59936;51.490;5.436;2022-10-16T01:59:23;5.95;;;3.15;;
64641;SDS011;59936;51.490;5.436;2022-10-16T02:04:31;3.17;;;2.40;;
64641;SDS011;59936;51.490;5.436;2022-10-16T02:09:38;2.70;;;2.50;;
64641;SDS011;59936;51.490;5.436;2022-10-16T02:14:41;4.57;;;2.65;;
64641;SDS011;59936;51.490;5.436;2022-10-16T02:19:43;3.35;;;2.60;;
64641;SDS011;59936;51.490;5.436;2022-10-16T02:24:50;4.00;;;2.95;;
64641;SDS011;59936;51.490;5.436;2022-10-16T02:29:59;4.07;;;2.70;;
64641;SDS011;59936;51.490;5.436;2022-10-16T02:35:10;5.40;;;2.70;;
64641;SDS011;59936;51.490;5.436;2022-10-16T02:40:13;5.43;;;2.60;;
64641;SDS011;59936;51.490;5.436;2022-10-16T02:45:18;5.32;;;2.80;;
64641;SDS011;59936;51.490;5.436;2022-10-16T02:50:20;3.13;;;2.80;;
64641;SDS011;59936;51.490;5.436;2022-10-16T03:00:25;5.22;;;2.70;;
64641;SDS011;59936;51.490;5.436;2022-10-16T03:05:27;5.65;;;2.88;;
64641;SDS011;59936;51.490;5.436;2022-10-16T03:10:29;6.07;;;2.50;;
64641;SDS011;59936;51.490;5.436;2022-10-16T03:15:32;3.50;;;2.67;;
64641;SDS011;59936;51.490;5.436;2022-10-16T03:20:34;3.13;;;2.13;;
64641;SDS011;59936;51.490;5.436;2022-10-16T03:25:35;3.63;;;2.55;;
64641;SDS011;59936;51.490;5.436;2022-10-16T03:30:38;4.18;;;2.38;;
64641;SDS011;59936;51.490;5.436;2022-10-16T03:35:40;7.72;;;2.92;;
64641;SDS011;59936;51.490;5.436;2022-10-16T03:40:42;3.63;;;2.95;;
64641;SDS011;59936;51.490;5.436;2022-10-16T03:45:46;5.45;;;2.70;;
64641;SDS011;59936;51.490;5.436;2022-10-16T03:50:47;4.43;;;2.70;;
64641;SDS011;59936;51.490;5.436;2022-10-16T03:55:50;4.85;;;3.10;;
64641;SDS011;59936;51.490;5.436;2022-10-16T04:00:53;3.03;;;2.67;;
64641;SDS011;59936;51.490;5.436;2022-10-16T04:05:55;3.10;;;2.70;;
64641;SDS011;59936;51.490;5.436;2022-10-16T04:10:56;3.20;;;2.88;;
64641;SDS011;59936;51.490;5.436;2022-10-16T04:15:59;2.60;;;2.40;;
64641;SDS011;59936;51.490;5.436;2022-10-16T04:21:02;3.78;;;2.50;;
64641;SDS011;59936;51.490;5.436;2022-10-16T04:26:05;3.10;;;2.70;;
64641;SDS011;59936;51.490;5.436;2022-10-16T04:31:08;3.92;;;2.65;;
64641;SDS011;59936;51.490;5.436;2022-10-16T04:36:09;4.68;;;2.58;;
64641;SDS011;59936;51.490;5.436;2022-10-16T04:41:11;6.18;;;3.28;;
64641;SDS011;59936;51.490;5.436;2022-10-16T04:46:14;4.18;;;2.70;;
64641;SDS011;59936;51.490;5.436;2022-10-16T04:51:16;4.50;;;2.50;;
64641;SDS011;59936;51.490;5.436;2022-10-16T04:56:18;3.03;;;2.70;;
64641;SDS011;59936;51.490;5.436;2022-10-16T05:06:24;6.68;;;2.58;;
64641;SDS011;59936;51.490;5.436;2022-10-16T05:11:26;4.95;;;2.50;;
64641;SDS011;59936;51.490;5.436;2022-10-16T05:16:29;4.43;;;3.08;;
64641;SDS011;59936;51.490;5.436;2022-10-16T05:21:31;4.40;;;2.85;;
64641;SDS011;59936;51.490;5.436;2022-10-16T05:26:33;4.10;;;2.95;;
64641;SDS011;59936;51.490;5.436;2022-10-16T05:31:35;7.65;;;3.50;;
64641;SDS011;59936;51.490;5.436;2022-10-16T05:36:37;4.18;;;3.60;;
64641;SDS011;59936;51.490;5.436;2022-10-16T05:41:39;10.02;;;4.22;;
64641;SDS011;59936;51.490;5.436;2022-10-16T05:46:43;6.53;;;3.90;;
64641;SDS011;59936;51.490;5.436;2022-10-16T05:51:47;6.70;;;3.58;;
64641;SDS011;59936;51.490;5.436;2022-10-16T05:56:49;4.97;;;3.53;;
64641;SDS011;59936;51.490;5.436;2022-10-16T06:01:52;5.30;;;3.15;;
64641;SDS011;59936;51.490;5.436;2022-10-16T06:06:54;6.38;;;3.70;;
64641;SDS011;59936;51.490;5.436;2022-10-16T06:12:01;6.75;;;3.47;;
64641;SDS011;59936;51.490;5.436;2022-10-16T06:17:04;6.13;;;3.47;;
64641;SDS011;59936;51.490;5.436;2022-10-16T06:22:06;9.20;;;4.25;;
64641;SDS011;59936;51.490;5.436;2022-10-16T06:32:13;6.72;;;3.70;;
64641;SDS011;59936;51.490;5.436;2022-10-16T06:37:14;5.35;;;3.45;;
64641;SDS011;59936;51.490;5.436;2022-10-16T06:42:17;6.00;;;3.45;;
64641;SDS011;59936;51.490;5.436;2022-10-16T06:47:20;7.72;;;3.42;;
64641;SDS011;59936;51.490;5.436;2022-10-16T06:52:22;4.32;;;3.28;;
64641;SDS011;59936;51.490;5.436;2022-10-16T06:57:24;3.03;;;2.83;;
64641;SDS011;59936;51.490;5.436;2022-10-16T07:02:28;7.05;;;3.30;;
64641;SDS011;59936;51.490;5.436;2022-10-16T07:07:30;8.27;;;3.28;;
64641;SDS011;59936;51.490;5.436;2022-10-16T07:12:34;5.47;;;3.05;;
64641;SDS011;59936;51.490;5.436;2022-10-16T07:17:37;3.78;;;2.80;;
64641;SDS011;59936;51.490;5.436;2022-10-16T07:22:39;3.58;;;2.50;;
64641;SDS011;59936;51.490;5.436;2022-10-16T07:27:41;2.75;;;2.40;;
64641;SDS011;59936;51.490;5.436;2022-10-16T07:32:44;4.28;;;2.10;;
64641;SDS011;59936;51.490;5.436;2022-10-16T07:37:45;6.45;;;2.50;;
64641;SDS011;59936;51.490;5.436;2022-10-16T07:42:47;5.40;;;2.40;;
64641;SDS011;59936;51.490;5.436;2022-10-16T07:47:50;4.18;;;2.42;;
64641;SDS011;59936;51.490;5.436;2022-10-16T07:52:52;3.13;;;2.10;;
64641;SDS011;59936;51.490;5.436;2022-10-16T07:57:54;2.25;;;1.65;;
64641;SDS011;59936;51.490;5.436;2022-10-16T08:02:57;3.15;;;2.17;;
64641;SDS011;59936;51.490;5.436;2022-10-16T08:08:00;5.75;;;2.47;;
64641;SDS011;59936;51.490;5.436;2022-10-16T08:13:03;2.80;;;1.90;;
64641;SDS011;59936;51.490;5.436;2022-10-16T08:23:08;3.90;;;2.20;;
64641;SDS011;59936;51.490;5.436;2022-10-16T08:28:14;4.15;;;2.40;;
64641;SDS011;59936;51.490;5.436;2022-10-16T08:33:18;3.90;;;1.90;;
64641;SDS011;59936;51.490;5.436;2022-10-16T08:38:20;5.68;;;2.00;;
64641;SDS011;59936;51.490;5.436;2022-10-16T08:43:28;5.72;;;1.90;;
64641;SDS011;59936;51.490;5.436;2022-10-16T08:48:53;2.90;;;1.77;;
64641;SDS011;59936;51.490;5.436;2022-10-16T08:54:01;3.25;;;1.98;;
64641;SDS011;59936;51.490;5.436;2022-10-16T08:59:06;3.78;;;1.92;;
64641;SDS011;59936;51.490;5.436;2022-10-16T09:09:59;3.58;;;1.88;;
64641;SDS011;59936;51.490;5.436;2022-10-16T09:15:20;3.47;;;2.00;;
64641;SDS011;59936;51.490;5.436;2022-10-16T09:20:32;3.85;;;1.95;;
64641;SDS011;59936;51.490;5.436;2022-10-16T09:25:44;4.70;;;1.75;;
64641;SDS011;59936;51.490;5.436;2022-10-16T09:30:48;5.78;;;2.10;;
64641;SDS011;59936;51.490;5.436;2022-10-16T09:35:52;4.07;;;1.83;;
64641;SDS011;59936;51.490;5.436;2022-10-16T09:40:58;5.07;;;1.88;;
64641;SDS011;59936;51.490;5.436;2022-10-16T09:46:03;5.20;;;1.80;;
64641;SDS011;59936;51.490;5.436;2022-10-16T09:51:15;5.15;;;2.03;;
64641;SDS011;59936;51.490;5.436;2022-10-16T09:56:23;4.18;;;1.90;;
64641;SDS011;59936;51.490;5.436;2022-10-16T10:01:29;4.43;;;1.70;;
64641;SDS011;59936;51.490;5.436;2022-10-16T10:06:42;8.00;;;2.10;;
64641;SDS011;59936;51.490;5.436;2022-10-16T10:11:49;7.40;;;2.22;;
64641;SDS011;59936;51.490;5.436;2022-10-16T10:17:02;6.22;;;2.40;;
64641;SDS011;59936;51.490;5.436;2022-10-16T10:22:23;4.13;;;1.98;;
64641;SDS011;59936;51.490;5.436;2022-10-16T10:27:32;9.35;;;2.35;;
64641;SDS011;59936;51.490;5.436;2022-10-16T10:32:44;7.00;;;2.15;;
64641;SDS011;59936;51.490;5.436;2022-10-16T10:38:05;6.88;;;2.40;;
64641;SDS011;59936;51.490;5.436;2022-10-16T10:43:32;6.80;;;2.67;;
64641;SDS011;59936;51.490;5.436;2022-10-16T10:48:54;7.38;;;2.42;;
64641;SDS011;59936;51.490;5.436;2022-10-16T10:54:49;9.63;;;2.30;;
64641;SDS011;59936;51.490;5.436;2022-10-16T11:00:06;7.18;;;1.85;;
64641;SDS011;59936;51.490;5.436;2022-10-16T11:05:38;6.70;;;2.70;;
64641;SDS011;59936;51.490;5.436;2022-10-16T11:10:47;6.00;;;2.05;;
64641;SDS011;59936;51.490;5.436;2022-10-16T11:15:57;10.57;;;2.50;;
64641;SDS011;59936;51.490;5.436;2022-10-16T11:21:04;13.20;;;2.47;;
64641;SDS011;59936;51.490;5.436;2022-10-16T11:26:16;7.15;;;2.30;;
64641;SDS011;59936;51.490;5.436;2022-10-16T11:31:24;6.78;;;2.60;;
64641;SDS011;59936;51.490;5.436;2022-10-16T11:36:40;11.75;;;2.88;;
64641;SDS011;59936;51.490;5.436;2022-10-16T11:41:49;9.77;;;2.40;;
64641;SDS011;59936;51.490;5.436;2022-10-16T11:46:58;4.10;;;2.00;;
64641;SDS011;59936;51.490;5.436;2022-10-16T11:52:15;12.25;;;2.33;;
64641;SDS011;59936;51.490;5.436;2022-10-16T11:57:26;6.68;;;1.83;;
64641;SDS011;59936;51.490;5.436;2022-10-16T12:02:37;6.93;;;2.05;;
64641;SDS011;59936;51.490;5.436;2022-10-16T12:07:52;7.03;;;2.05;;
64641;SDS011;59936;51.490;5.436;2022-10-16T12:18:33;4.93;;;1.95;;
64641;SDS011;59936;51.490;5.436;2022-10-16T12:23:36;7.47;;;1.98;;
64641;SDS011;59936;51.490;5.436;2022-10-16T12:28:49;6.60;;;2.00;;
64641;SDS011;59936;51.490;5.436;2022-10-16T12:33:57;6.43;;;1.75;;
64641;SDS011;59936;51.490;5.436;2022-10-16T12:39:03;5.13;;;2.03;;
64641;SDS011;59936;51.490;5.436;2022-10-16T12:44:20;6.80;;;2.20;;
64641;SDS011;59936;51.490;5.436;2022-10-16T12:49:32;9.60;;;2.20;;
64641;SDS011;59936;51.490;5.436;2022-10-16T12:54:39;4.53;;;1.58;;
64641;SDS011;59936;51.490;5.436;2022-10-16T12:59:45;6.35;;;2.00;;
64641;SDS011;59936;51.490;5.436;2022-10-16T13:05:08;5.72;;;1.80;;
64641;SDS011;59936;51.490;5.436;2022-10-16T13:10:28;7.68;;;2.00;;
64641;SDS011;59936;51.490;5.436;2022-10-16T13:15:45;4.85;;;1.88;;
64641;SDS011;59936;51.490;5.436;2022-10-16T13:21:18;8.23;;;1.83;;
64641;SDS011;59936;51.490;5.436;2022-10-16T13:26:37;5.70;;;1.70;;
64641;SDS011;59936;51.490;5.436;2022-10-16T13:31:53;6.97;;;1.63;;
64641;SDS011;59936;51.490;5.436;2022-10-16T13:36:54;3.72;;;1.65;;
64641;SDS011;59936;51.490;5.436;2022-10-16T13:42:00;5.47;;;1.75;;
64641;SDS011;59936;51.490;5.436;2022-10-16T13:47:11;7.30;;;1.90;;
64641;SDS011;59936;51.490;5.436;2022-10-16T13:52:20;4.93;;;1.85;;
64641;SDS011;59936;51.490;5.436;2022-10-16T13:57:23;4.40;;;1.58;;
64641;SDS011;59936;51.490;5.436;2022-10-16T14:02:29;4.22;;;1.58;;
64641;SDS011;59936;51.490;5.436;2022-10-16T14:07:36;4.97;;;1.63;;
64641;SDS011;59936;51.490;5.436;2022-10-16T14:12:40;8.70;;;1.50;;
64641;SDS011;59936;51.490;5.436;2022-10-16T14:17:43;6.40;;;1.80;;
64641;SDS011;59936;51.490;5.436;2022-10-16T14:22:57;2.70;;;1.60;;
64641;SDS011;59936;51.490;5.436;2022-10-16T14:28:03;7.27;;;1.70;;
64641;SDS011;59936;51.490;5.436;2022-10-16T14:33:22;4.68;;;2.08;;
64641;SDS011;59936;51.490;5.436;2022-10-16T14:38:33;5.57;;;1.63;;
64641;SDS011;59936;51.490;5.436;2022-10-16T14:43:37;6.55;;;1.70;;
64641;SDS011;59936;51.490;5.436;2022-10-16T14:48:43;5.55;;;1.80;;
64641;SDS011;59936;51.490;5.436;2022-10-16T14:53:52;3.33;;;1.70;;
64641;SDS011;59936;51.490;5.436;2022-10-16T14:58:53;4.22;;;1.75;;
64641;SDS011;59936;51.490;5.436;2022-10-16T15:03:58;3.88;;;1.30;;
64641;SDS011;59936;51.490;5.436;2022-10-16T15:09:00;3.70;;;1.45;;
64641;SDS011;59936;51.490;5.436;2022-10-16T15:14:02;4.35;;;1.17;;
64641;SDS011;59936;51.490;5.436;2022-10-16T15:19:06;5.80;;;1.52;;
64641;SDS011;59936;51.490;5.436;2022-10-16T15:24:10;3.45;;;1.40;;
64641;SDS011;59936;51.490;5.436;2022-10-16T15:29:14;3.58;;;1.65;;
64641;SDS011;59936;51.490;5.436;2022-10-16T15:34:17;5.05;;;1.77;;
64641;SDS011;59936;51.490;5.436;2022-10-16T15:39:21;2.38;;;1.90;;
64641;SDS011;59936;51.490;5.436;2022-10-16T15:44:22;1.88;;;1.45;;
64641;SDS011;59936;51.490;5.436;2022-10-16T15:49:29;4.25;;;2.35;;
64641;SDS011;59936;51.490;5.436;2022-10-16T15:54:30;3.88;;;1.90;;
64641;SDS011;59936;51.490;5.436;2022-10-16T16:04:36;5.10;;;2.20;;
64641;SDS011;59936;51.490;5.436;2022-10-16T16:09:38;4.22;;;2.20;;
64641;SDS011;59936;51.490;5.436;2022-10-16T16:14:40;3.60;;;2.00;;
64641;SDS011;59936;51.490;5.436;2022-10-16T16:19:46;5.88;;;2.10;;
64641;SDS011;59936;51.490;5.436;2022-10-16T16:24:48;8.38;;;2.42;;
64641;SDS011;59936;51.490;5.436;2022-10-16T16:29:50;3.97;;;2.00;;
64641;SDS011;59936;51.490;5.436;2022-10-16T16:34:54;12.75;;;2.80;;
64641;SDS011;59936;51.490;5.436;2022-10-16T16:39:57;5.93;;;2.50;;
64641;SDS011;59936;51.490;5.436;2022-10-16T16:44:59;8.00;;;3.05;;
64641;SDS011;59936;51.490;5.436;2022-10-16T16:50:03;7.63;;;3.10;;
64641;SDS011;59936;51.490;5.436;2022-10-16T16:55:07;9.32;;;3.20;;
64641;SDS011;59936;51.490;5.436;2022-10-16T17:00:11;7.25;;;3.42;;
64641;SDS011;59936;51.490;5.436;2022-10-16T17:05:15;5.22;;;3.10;;
64641;SDS011;59936;51.490;5.436;2022-10-16T17:10:18;4.03;;;3.03;;
64641;SDS011;59936;51.490;5.436;2022-10-16T17:15:20;10.07;;;5.72;;
64641;SDS011;59936;51.490;5.436;2022-10-16T17:20:24;9.52;;;5.85;;
64641;SDS011;59936;51.490;5.436;2022-10-16T17:25:26;7.13;;;5.88;;
64641;SDS011;59936;51.490;5.436;2022-10-16T17:30:29;6.97;;;5.03;;
64641;SDS011;59936;51.490;5.436;2022-10-16T17:35:36;7.53;;;4.45;;
64641;SDS011;59936;51.490;5.436;2022-10-16T17:40:40;9.77;;;4.80;;
64641;SDS011;59936;51.490;5.436;2022-10-16T17:45:42;7.50;;;4.25;;
64641;SDS011;59936;51.490;5.436;2022-10-16T17:50:45;7.22;;;3.80;;
64641;SDS011;59936;51.490;5.436;2022-10-16T17:55:47;9.38;;;4.05;;
64641;SDS011;59936;51.490;5.436;2022-10-16T18:00:50;7.35;;;3.92;;
64641;SDS011;59936;51.490;5.436;2022-10-16T18:05:53;9.80;;;3.90;;
64641;SDS011;59936;51.490;5.436;2022-10-16T18:10:55;6.50;;;3.88;;
64641;SDS011;59936;51.490;5.436;2022-10-16T18:16:00;8.18;;;4.25;;
64641;SDS011;59936;51.490;5.436;2022-10-16T18:21:04;10.60;;;5.18;;
64641;SDS011;59936;51.490;5.436;2022-10-16T18:26:10;8.05;;;4.72;;
64641;SDS011;59936;51.490;5.436;2022-10-16T18:31:15;9.30;;;4.60;;
64641;SDS011;59936;51.490;5.436;2022-10-16T18:36:21;7.30;;;4.40;;
64641;SDS011;59936;51.490;5.436;2022-10-16T18:41:25;11.43;;;5.18;;
64641;SDS011;59936;51.490;5.436;2022-10-16T18:46:29;9.70;;;4.95;;
64641;SDS011;59936;51.490;5.436;2022-10-16T18:51:34;10.55;;;5.90;;
64641;SDS011;59936;51.490;5.436;2022-10-16T18:56:39;9.60;;;6.25;;
64641;SDS011;59936;51.490;5.436;2022-10-16T19:01:40;13.95;;;9.73;;
64641;SDS011;59936;51.490;5.436;2022-10-16T19:06:44;14.55;;;8.25;;
64641;SDS011;59936;51.490;5.436;2022-10-16T19:11:49;13.50;;;7.72;;
64641;SDS011;59936;51.490;5.436;2022-10-16T19:16:51;14.02;;;7.00;;
64641;SDS011;59936;51.490;5.436;2022-10-16T19:21:54;10.98;;;7.93;;
64641;SDS011;59936;51.490;5.436;2022-10-16T19:27:10;8.30;;;7.20;;
64641;SDS011;59936;51.490;5.436;2022-10-16T19:32:11;9.90;;;6.63;;
64641;SDS011;59936;51.490;5.436;2022-10-16T19:37:16;14.30;;;7.00;;
64641;SDS011;59936;51.490;5.436;2022-10-16T19:42:18;10.43;;;7.45;;
64641;SDS011;59936;51.490;5.436;2022-10-16T19:47:21;13.38;;;6.90;;
64641;SDS011;59936;51.490;5.436;2022-10-16T19:52:24;9.32;;;7.10;;
64641;SDS011;59936;51.490;5.436;2022-10-16T19:57:26;10.45;;;8.00;;
64641;SDS011;59936;51.490;5.436;2022-10-16T20:02:28;9.90;;;7.80;;
64641;SDS011;59936;51.490;5.436;2022-10-16T20:12:34;12.98;;;9.25;;
64641;SDS011;59936;51.490;5.436;2022-10-16T20:17:37;17.42;;;11.20;;
64641;SDS011;59936;51.490;5.436;2022-10-16T20:22:40;23.27;;;11.60;;
64641;SDS011;59936;51.490;5.436;2022-10-16T20:27:43;17.55;;;11.07;;
64641;SDS011;59936;51.490;5.436;2022-10-16T20:32:45;15.63;;;11.60;;
64641;SDS011;59936;51.490;5.436;2022-10-16T20:37:49;19.73;;;13.57;;
64641;SDS011;59936;51.490;5.436;2022-10-16T20:42:50;21.15;;;13.73;;
64641;SDS011;59936;51.490;5.436;2022-10-16T20:47:52;19.02;;;12.73;;
64641;SDS011;59936;51.490;5.436;2022-10-16T20:52:55;15.10;;;12.13;;
64641;SDS011;59936;51.490;5.436;2022-10-16T20:58:00;23.92;;;13.70;;
64641;SDS011;59936;51.490;5.436;2022-10-16T21:03:01;22.02;;;13.85;;
64641;SDS011;59936;51.490;5.436;2022-10-16T21:13:06;18.27;;;12.95;;
64641;SDS011;59936;51.490;5.436;2022-10-16T21:18:08;21.73;;;13.63;;
64641;SDS011;59936;51.490;5.436;2022-10-16T21:23:11;22.10;;;14.27;;
64641;SDS011;59936;51.490;5.436;2022-10-16T21:28:14;24.05;;;14.15;;
64641;SDS011;59936;51.490;5.436;2022-10-16T21:33:16;23.85;;;14.38;;
64641;SDS011;59936;51.490;5.436;2022-10-16T21:38:19;20.48;;;14.23;;
64641;SDS011;59936;51.490;5.436;2022-10-16T21:43:20;19.58;;;13.40;;
64641;SDS011;59936;51.490;5.436;2022-10-16T21:48:22;24.98;;;13.23;;
64641;SDS011;59936;51.490;5.436;2022-10-16T21:53:25;28.40;;;14.70;;
64641;SDS011;59936;51.490;5.436;2022-10-16T21:58:29;24.77;;;15.60;;
64641;SDS011;59936;51.490;5.436;2022-10-16T22:03:32;25.83;;;14.10;;
64641;SDS011;59936;51.490;5.436;2022-10-16T22:08:35;24.60;;;14.68;;
64641;SDS011;59936;51.490;5.436;2022-10-16T22:13:38;23.65;;;14.73;;
64641;SDS011;59936;51.490;5.436;2022-10-16T22:18:40;23.58;;;14.40;;
64641;SDS011;59936;51.490;5.436;2022-10-16T22:23:43;23.52;;;15.38;;
64641;SDS011;59936;51.490;5.436;2022-10-16T22:28:45;23.50;;;14.82;;
64641;SDS011;59936;51.490;5.436;2022-10-16T22:38:55;21.63;;;14.73;;
64641;SDS011;59936;51.490;5.436;2022-10-16T22:43:58;26.42;;;15.30;;
64641;SDS011;59936;51.490;5.436;2022-10-16T22:49:01;23.40;;;15.80;;
64641;SDS011;59936;51.490;5.436;2022-10-16T22:54:04;23.08;;;14.10;;
64641;SDS011;59936;51.490;5.436;2022-10-16T22:59:07;23.45;;;14.20;;
64641;SDS011;59936;51.490;5.436;2022-10-16T23:04:09;24.27;;;14.10;;
64641;SDS011;59936;51.490;5.436;2022-10-16T23:09:12;28.13;;;15.35;;
64641;SDS011;59936;51.490;5.436;2022-10-16T23:14:18;23.92;;;14.43;;
64641;SDS011;59936;51.490;5.436;2022-10-16T23:19:21;26.10;;;14.90;;
64641;SDS011;59936;51.490;5.436;2022-10-16T23:24:24;23.05;;;14.35;;
64641;SDS011;59936;51.490;5.436;2022-10-16T23:29:26;26.88;;;14.60;;
64641;SDS011;59936;51.490;5.436;2022-10-16T23:34:28;25.40;;;14.52;;
64641;SDS011;59936;51.490;5.436;2022-10-16T23:39:31;27.15;;;14.85;;
64641;SDS011;59936;51.490;5.436;2022-10-16T23:44:33;25.58;;;14.07;;
64641;SDS011;59936;51.490;5.436;2022-10-16T23:49:35;27.95;;;15.70;;
64641;SDS011;59936;51.490;5.436;2022-10-16T23:54:38;22.58;;;13.07;;
64641;SDS011;59936;51.490;5.436;2022-10-16T23:59:41;24.85;;;13.90;;
